createdAt,value
2022-11-20T00:01:10.902Z,32.10
2022-11-20T00:03:37.698Z,31.63
2022-11-20T00:06:05.767Z,31.63
2022-11-20T00:08:32.693Z,31.97
2022-11-20T00:11:04.266Z,30.83
2022-11-20T00:13:31.018Z,33.53
2022-11-20T00:15:59.529Z,32.27
2022-11-20T00:18:26.855Z,31.20
2022-11-20T00:20:53.785Z,32.67
2022-11-20T00:23:20.756Z,31.43
2022-11-20T00:25:47.741Z,32.47
2022-11-20T00:28:14.546Z,31.47
2022-11-20T00:30:41.316Z,32.63
2022-11-20T00:33:08.143Z,32.47
2022-11-20T00:35:34.980Z,32.70
2022-11-20T00:38:01.785Z,32.30
2022-11-20T00:40:28.554Z,32.67
2022-11-20T00:42:55.353Z,31.60
2022-11-20T00:45:22.192Z,33.73
2022-11-20T00:47:48.957Z,32.63
2022-11-20T00:50:15.809Z,32.60
2022-11-20T00:52:42.593Z,31.00
2022-11-20T00:55:09.441Z,33.60
2022-11-20T00:57:36.217Z,32.00
2022-11-20T01:00:03.107Z,32.17
2022-11-20T01:02:29.918Z,32.50
2022-11-20T01:04:56.721Z,30.57
2022-11-20T01:07:23.579Z,31.03
2022-11-20T01:09:50.350Z,33.03
2022-11-20T01:12:17.116Z,30.67
2022-11-20T01:14:43.933Z,31.67
2022-11-20T01:17:10.690Z,29.80
2022-11-20T01:19:37.466Z,29.97
2022-11-20T01:22:04.550Z,29.33
2022-11-20T01:24:31.473Z,30.03
2022-11-20T01:26:58.300Z,29.00
2022-11-20T01:29:25.704Z,30.73
2022-11-20T01:31:53.464Z,32.77
2022-11-20T01:34:20.582Z,32.40
2022-11-20T01:36:47.469Z,32.33
2022-11-20T01:39:19.194Z,32.23
2022-11-20T01:42:09.584Z,32.97
2022-11-20T01:44:56.750Z,34.57
2022-11-20T01:47:33.092Z,31.87
2022-11-20T01:50:07.575Z,33.87
2022-11-20T01:52:37.907Z,32.37
2022-11-20T01:55:16.517Z,34.07
2022-11-20T01:57:43.379Z,31.53
2022-11-20T02:00:12.634Z,34.43
2022-11-20T02:02:40.572Z,34.40
2022-11-20T02:05:19.681Z,33.33
2022-11-20T02:07:46.481Z,33.30
2022-11-20T02:10:13.479Z,34.33
2022-11-20T02:12:58.912Z,35.70
2022-11-20T02:15:30.091Z,34.00
2022-11-20T02:17:58.321Z,33.63
2022-11-20T02:20:25.098Z,33.73
2022-11-20T02:23:13.186Z,32.90
2022-11-20T02:25:40.955Z,34.57
2022-11-20T02:28:07.713Z,34.70
2022-11-20T02:30:34.500Z,33.60
2022-11-20T02:33:01.262Z,33.17
2022-11-20T02:35:28.045Z,34.67
2022-11-20T02:37:56.710Z,34.57
2022-11-20T02:40:23.500Z,36.37
2022-11-20T02:42:54.162Z,31.03
2022-11-20T02:45:21.005Z,32.63
2022-11-20T02:47:47.801Z,34.33
2022-11-20T02:50:14.598Z,32.97
2022-11-20T02:52:41.358Z,33.67
2022-11-20T02:55:08.365Z,32.63
2022-11-20T02:57:35.129Z,34.73
2022-11-20T03:00:02.049Z,34.67
2022-11-20T03:02:31.810Z,36.23
2022-11-20T03:04:58.641Z,33.97
2022-11-20T03:07:25.613Z,36.57
2022-11-20T03:09:52.415Z,35.53
2022-11-20T03:12:19.257Z,34.50
2022-11-20T03:14:50.165Z,37.07
2022-11-20T03:17:19.605Z,35.07
2022-11-20T03:19:46.466Z,35.33
2022-11-20T03:22:13.279Z,35.73
2022-11-20T03:24:40.056Z,35.70
2022-11-20T03:27:06.817Z,35.07
2022-11-20T03:29:33.624Z,34.97
2022-11-20T03:32:00.391Z,37.70
2022-11-20T03:34:27.157Z,35.20
2022-11-20T03:36:53.984Z,36.43
2022-11-20T03:39:20.952Z,35.70
2022-11-20T03:41:47.957Z,34.13
2022-11-20T03:44:14.761Z,36.30
2022-11-20T03:46:41.568Z,34.93
2022-11-20T03:49:08.393Z,37.30
2022-11-20T03:51:36.209Z,35.73
2022-11-20T03:54:06.684Z,35.27
2022-11-20T03:56:37.788Z,35.53
2022-11-20T03:59:04.865Z,36.03
2022-11-20T04:01:33.491Z,35.77
2022-11-20T04:04:00.405Z,36.70
2022-11-20T04:06:29.073Z,34.93
2022-11-20T04:08:56.756Z,36.77
2022-11-20T04:11:25.962Z,35.83
2022-11-20T04:13:54.378Z,35.23
2022-11-20T04:16:21.662Z,36.57
2022-11-20T04:18:48.549Z,39.13
2022-11-20T04:21:15.360Z,38.50
2022-11-20T04:23:42.112Z,38.30
2022-11-20T04:26:10.164Z,35.20
2022-11-20T04:28:37.210Z,36.03
2022-11-20T04:31:11.898Z,37.33
2022-11-20T04:33:38.787Z,37.60
2022-11-20T04:36:07.722Z,37.23
2022-11-20T04:38:34.768Z,35.60
2022-11-20T04:41:02.381Z,36.50
2022-11-20T04:43:30.313Z,37.83
2022-11-20T04:45:57.750Z,36.53
2022-11-20T04:48:24.760Z,37.07
2022-11-20T04:50:52.610Z,35.60
2022-11-20T04:53:19.498Z,36.70
2022-11-20T04:55:46.591Z,37.10
2022-11-20T04:58:13.690Z,37.93
2022-11-20T05:00:40.532Z,37.93
2022-11-20T05:03:07.310Z,35.77
2022-11-20T05:05:37.147Z,36.33
2022-11-20T05:08:04.170Z,36.67
2022-11-20T05:10:30.944Z,35.83
2022-11-20T05:12:58.348Z,37.40
2022-11-20T05:15:25.389Z,36.20
2022-11-20T05:17:52.838Z,37.73
2022-11-20T05:20:19.867Z,38.87
2022-11-20T05:22:46.680Z,40.20
2022-11-20T05:25:13.488Z,38.37
2022-11-20T05:27:40.389Z,36.40
2022-11-20T05:30:07.824Z,39.83
2022-11-20T05:32:36.724Z,38.57
2022-11-20T05:35:03.658Z,39.90
2022-11-20T05:37:30.432Z,39.57
2022-11-20T05:39:57.266Z,40.40
2022-11-20T05:42:33.058Z,39.53
2022-11-20T05:45:04.921Z,40.77
2022-11-20T05:47:35.319Z,41.50
2022-11-20T05:50:02.248Z,42.87
2022-11-20T05:52:31.845Z,41.20
2022-11-20T05:54:58.628Z,40.67
2022-11-20T05:57:25.431Z,39.43
2022-11-20T05:59:52.181Z,38.47
2022-11-20T06:02:19.089Z,40.67
2022-11-20T06:04:45.897Z,39.70
2022-11-20T06:07:12.786Z,41.57
2022-11-20T06:09:39.613Z,40.63
2022-11-20T06:12:06.864Z,41.07
2022-11-20T06:14:33.795Z,40.33
2022-11-20T06:17:00.813Z,42.37
2022-11-20T06:19:27.632Z,42.13
2022-11-20T06:21:54.447Z,41.57
2022-11-20T06:24:21.207Z,42.97
2022-11-20T06:26:47.974Z,41.93
2022-11-20T06:29:14.812Z,43.87
2022-11-20T06:31:43.485Z,40.40
2022-11-20T06:34:10.265Z,43.97
2022-11-20T06:36:37.081Z,41.77
2022-11-20T06:39:03.945Z,44.20
2022-11-20T06:41:30.796Z,44.40
2022-11-20T06:43:57.588Z,45.97
2022-11-20T06:46:24.444Z,43.37
2022-11-20T06:48:51.526Z,44.67
2022-11-20T06:51:18.383Z,46.13
2022-11-20T06:53:45.298Z,48.50
2022-11-20T06:56:12.062Z,44.80
2022-11-20T06:58:38.924Z,44.90
2022-11-20T07:01:07.835Z,44.87
2022-11-20T07:03:34.901Z,45.07
2022-11-20T07:06:02.186Z,42.63
2022-11-20T07:08:29.010Z,42.63
2022-11-20T07:11:01.651Z,42.93
2022-11-20T07:13:29.067Z,45.57
2022-11-20T07:15:56.038Z,44.43
2022-11-20T07:18:22.855Z,43.60
2022-11-20T07:20:49.609Z,42.10
2022-11-20T07:23:16.432Z,42.60
2022-11-20T07:25:43.293Z,43.80
2022-11-20T07:28:11.688Z,40.03
2022-11-20T07:30:39.771Z,42.00
2022-11-20T07:33:06.569Z,41.27
2022-11-20T07:35:33.891Z,40.30
2022-11-20T07:38:00.722Z,41.07
2022-11-20T07:40:27.667Z,40.37
2022-11-20T07:42:55.794Z,37.97
2022-11-20T07:45:23.576Z,38.40
2022-11-20T07:47:50.533Z,34.43
2022-11-20T07:50:17.499Z,42.87
2022-11-20T07:52:44.344Z,35.73
2022-11-20T07:55:11.237Z,36.93
2022-11-20T07:57:38.054Z,36.27
2022-11-20T08:00:05.590Z,37.37
2022-11-20T08:02:32.480Z,37.70
2022-11-20T08:04:59.301Z,38.17
2022-11-20T08:07:26.160Z,36.17
2022-11-20T08:09:52.961Z,39.20
2022-11-20T08:12:39.990Z,36.27
2022-11-20T08:15:12.898Z,35.03
2022-11-20T08:17:40.376Z,34.03
2022-11-20T08:20:07.552Z,34.93
2022-11-20T08:22:34.344Z,35.97
2022-11-20T08:25:01.119Z,35.03
2022-11-20T08:27:27.991Z,34.17
2022-11-20T08:29:55.799Z,33.13
2022-11-20T08:32:23.841Z,34.40
2022-11-20T08:34:50.750Z,35.23
2022-11-20T08:37:17.532Z,32.60
2022-11-20T08:39:44.302Z,33.60
2022-11-20T08:42:11.200Z,32.50
2022-11-20T08:44:38.003Z,34.07
2022-11-20T08:47:04.802Z,36.80
2022-11-20T08:49:31.626Z,35.23
2022-11-20T08:51:58.406Z,35.43
2022-11-20T08:54:25.185Z,34.67
2022-11-20T08:56:51.977Z,34.67
2022-11-20T08:59:36.682Z,38.50
2022-11-20T09:02:05.542Z,36.83
2022-11-20T09:04:32.485Z,39.00
2022-11-20T09:07:01.328Z,38.33
2022-11-20T09:09:28.186Z,38.40
2022-11-20T09:11:54.996Z,37.43
2022-11-20T09:14:22.391Z,38.73
2022-11-20T09:16:49.260Z,38.67
2022-11-20T09:19:35.198Z,38.40
2022-11-20T09:22:02.841Z,38.63
2022-11-20T09:24:29.637Z,40.00
2022-11-20T09:26:56.462Z,38.97
2022-11-20T09:29:23.674Z,38.57
2022-11-20T09:31:50.701Z,38.13
2022-11-20T09:34:17.598Z,39.80
2022-11-20T09:36:44.369Z,38.73
2022-11-20T09:39:11.174Z,38.70
2022-11-20T09:42:02.499Z,37.80
2022-11-20T09:44:53.173Z,36.43
2022-11-20T09:47:29.097Z,36.93
2022-11-20T09:50:09.017Z,33.47
2022-11-20T09:53:04.033Z,36.70
2022-11-20T09:55:30.858Z,34.73
2022-11-20T09:57:57.656Z,34.27
2022-11-20T10:00:24.573Z,35.10
2022-11-20T10:02:56.526Z,34.77
2022-11-20T10:05:54.295Z,31.30
2022-11-20T10:08:34.450Z,33.00
2022-11-20T10:11:50.259Z,33.67
2022-11-20T10:14:38.276Z,32.27
2022-11-20T10:17:34.331Z,32.67
2022-11-20T10:20:46.021Z,32.23
2022-11-20T10:23:12.783Z,30.23
2022-11-20T10:25:41.695Z,28.33
2022-11-20T10:28:32.356Z,30.43
2022-11-20T10:31:08.758Z,29.10
2022-11-20T10:34:05.104Z,27.23
2022-11-20T10:36:31.320Z,24.80
2022-11-20T10:39:08.427Z,25.63
2022-11-20T10:41:44.482Z,23.90
2022-11-20T10:44:12.987Z,23.83
2022-11-20T10:46:46.008Z,22.90
2022-11-20T10:49:14.668Z,21.73
2022-11-20T10:51:51.897Z,20.93
2022-11-20T10:54:51.064Z,20.63
2022-11-20T10:57:56.871Z,20.03
2022-11-20T11:00:23.735Z,19.87
2022-11-20T11:02:51.832Z,18.80
2022-11-20T11:05:21.718Z,20.87
2022-11-20T11:07:51.494Z,18.60
2022-11-20T11:10:35.954Z,18.00
2022-11-20T11:13:02.760Z,16.77
2022-11-20T11:15:40.223Z,15.97
2022-11-20T11:18:10.320Z,15.70
2022-11-20T11:20:39.298Z,16.37
2022-11-20T11:23:06.149Z,14.50
2022-11-20T11:25:37.028Z,12.97
2022-11-20T11:28:28.505Z,12.77
2022-11-20T11:30:55.814Z,12.30
2022-11-20T11:33:27.497Z,11.37
2022-11-20T11:36:01.858Z,11.67
2022-11-20T11:38:39.706Z,10.53
2022-11-20T11:41:07.814Z,10.50
2022-11-20T11:43:54.608Z,9.37
2022-11-20T11:46:21.436Z,9.47
2022-11-20T11:49:01.709Z,8.73
2022-11-20T11:51:43.072Z,9.00
2022-11-20T11:54:20.576Z,8.27
2022-11-20T11:56:47.568Z,7.53
2022-11-20T11:59:22.873Z,7.77
2022-11-20T12:01:54.045Z,5.97
2022-11-20T12:04:38.844Z,5.67
2022-11-20T12:07:47.098Z,6.90
2022-11-20T12:10:21.656Z,5.40
2022-11-20T12:12:54.541Z,5.73
2022-11-20T12:15:27.745Z,5.43
2022-11-20T12:17:54.586Z,5.27
2022-11-20T12:20:21.730Z,6.03
2022-11-20T12:23:14.160Z,5.93
2022-11-20T12:25:40.953Z,6.07
2022-11-20T12:28:13.657Z,5.97
2022-11-20T12:30:49.604Z,6.63
2022-11-20T12:33:43.413Z,6.13
2022-11-20T12:36:20.808Z,6.50
2022-11-20T12:39:02.515Z,6.20
2022-11-20T12:42:09.098Z,7.47
2022-11-20T12:45:12.964Z,6.27
2022-11-20T12:48:13.880Z,5.90
2022-11-20T12:51:07.922Z,6.43
2022-11-20T12:54:00.753Z,6.83
2022-11-20T12:56:40.359Z,7.27
2022-11-20T12:59:27.547Z,7.37
2022-11-20T13:02:02.450Z,8.67
2022-11-20T13:04:38.510Z,8.27
2022-11-20T13:07:10.632Z,7.57
2022-11-20T13:09:40.646Z,8.23
2022-11-20T13:12:26.575Z,7.87
2022-11-20T13:15:24.321Z,8.80
2022-11-20T13:17:59.528Z,8.13
2022-11-20T13:20:26.329Z,8.80
2022-11-20T13:22:58.793Z,8.27
2022-11-20T13:25:28.608Z,9.30
2022-11-20T13:27:56.183Z,8.00
2022-11-20T13:30:25.741Z,9.33
2022-11-20T13:33:24.043Z,8.63
2022-11-20T13:36:24.150Z,8.57
2022-11-20T13:38:54.837Z,8.50
2022-11-20T13:41:29.454Z,7.50
2022-11-20T13:44:12.153Z,8.13
2022-11-20T13:46:45.014Z,7.83
2022-11-20T13:49:31.467Z,7.63
2022-11-20T13:52:32.154Z,8.47
2022-11-20T13:55:01.653Z,7.80
2022-11-20T13:57:31.312Z,8.10
2022-11-20T13:59:59.651Z,8.03
2022-11-20T14:02:27.714Z,8.27
2022-11-20T14:04:55.647Z,7.20
2022-11-20T14:07:24.954Z,7.17
2022-11-20T14:09:56.658Z,6.60
2022-11-20T14:12:34.392Z,6.27
2022-11-20T14:15:01.272Z,4.97
2022-11-20T14:17:34.601Z,3.97
2022-11-20T14:20:06.413Z,4.10
2022-11-20T14:22:33.184Z,3.60
2022-11-20T14:25:13.344Z,4.23
2022-11-20T14:27:41.570Z,3.50
2022-11-20T14:30:15.446Z,3.70
2022-11-20T14:32:42.780Z,3.90
2022-11-20T14:35:11.259Z,3.83
2022-11-20T14:37:39.192Z,3.60
2022-11-20T14:40:31.138Z,4.83
2022-11-20T14:42:58.665Z,3.80
2022-11-20T14:45:26.294Z,4.67
2022-11-20T14:47:54.434Z,3.63
2022-11-20T14:50:28.588Z,4.47
2022-11-20T14:52:56.274Z,4.87
2022-11-20T14:55:27.378Z,4.80
2022-11-20T14:57:58.940Z,4.40
2022-11-20T15:00:26.034Z,4.60
2022-11-20T15:02:53.174Z,3.53
2022-11-20T15:05:22.268Z,3.90
2022-11-20T15:07:51.713Z,4.60
2022-11-20T15:10:23.916Z,4.17
2022-11-20T15:12:55.126Z,4.40
2022-11-20T15:15:44.896Z,4.17
2022-11-20T15:18:18.905Z,4.83
2022-11-20T15:20:45.758Z,4.73
2022-11-20T15:23:13.289Z,4.80
2022-11-20T15:25:40.778Z,4.37
2022-11-20T15:28:26.755Z,4.10
2022-11-20T15:30:53.610Z,4.23
2022-11-20T15:33:20.405Z,5.07
2022-11-20T15:35:47.298Z,4.00
2022-11-20T15:38:14.235Z,4.60
2022-11-20T15:40:41.062Z,4.00
2022-11-20T15:43:13.311Z,4.23
2022-11-20T15:45:52.257Z,4.13
2022-11-20T15:48:26.097Z,3.67
2022-11-20T15:51:07.206Z,4.30
2022-11-20T15:53:36.117Z,4.57
2022-11-20T15:56:03.321Z,4.90
2022-11-20T15:58:30.268Z,4.47
2022-11-20T16:00:57.335Z,3.97
2022-11-20T16:03:24.137Z,4.87
2022-11-20T16:05:50.968Z,4.27
2022-11-20T16:08:17.804Z,3.70
2022-11-20T16:10:44.570Z,4.87
2022-11-20T16:13:38.821Z,5.03
2022-11-20T16:16:07.605Z,4.97
2022-11-20T16:18:34.488Z,4.53
2022-11-20T16:21:01.538Z,6.23
2022-11-20T16:23:28.361Z,3.87
2022-11-20T16:25:55.400Z,3.70
2022-11-20T16:28:22.190Z,4.63
2022-11-20T16:30:49.064Z,4.40
2022-11-20T16:33:16.836Z,4.60
2022-11-20T16:35:43.869Z,4.40
2022-11-20T16:38:10.852Z,5.00
2022-11-20T16:40:37.662Z,6.00
2022-11-20T16:43:11.863Z,4.33
2022-11-20T16:45:43.666Z,4.90
2022-11-20T16:48:14.864Z,4.17
2022-11-20T16:50:53.847Z,4.77
2022-11-20T16:53:21.473Z,4.73
2022-11-20T16:55:48.417Z,5.70
2022-11-20T16:58:15.705Z,5.43
2022-11-20T17:00:46.879Z,4.40
2022-11-20T17:03:18.057Z,4.93
2022-11-20T17:05:44.832Z,4.30
2022-11-20T17:08:11.622Z,4.43
2022-11-20T17:10:38.481Z,4.10
2022-11-20T17:13:05.272Z,3.83
2022-11-20T17:15:32.050Z,4.80
2022-11-20T17:17:58.874Z,3.60
2022-11-20T17:20:25.649Z,4.47
2022-11-20T17:22:52.586Z,4.70
2022-11-20T17:25:19.469Z,4.07
2022-11-20T17:27:46.249Z,3.50
2022-11-20T17:30:13.124Z,4.03
2022-11-20T17:32:46.054Z,3.53
2022-11-20T17:35:12.897Z,3.70
2022-11-20T17:37:39.665Z,4.23
2022-11-20T17:40:06.894Z,4.03
2022-11-20T17:42:36.969Z,3.40
2022-11-20T17:45:04.792Z,5.70
2022-11-20T17:47:31.553Z,3.57
2022-11-20T17:49:58.370Z,4.77
2022-11-20T17:52:25.181Z,3.70
2022-11-20T17:54:55.841Z,3.70
2022-11-20T17:57:43.937Z,3.97
2022-11-20T18:00:13.192Z,3.87
2022-11-20T18:02:40.168Z,3.47
2022-11-20T18:05:07.270Z,3.50
2022-11-20T18:07:40.142Z,3.83
2022-11-20T18:10:09.095Z,4.10
2022-11-20T18:12:35.926Z,3.40
2022-11-20T18:15:02.754Z,3.80
2022-11-20T18:17:29.578Z,4.10
2022-11-20T18:20:21.845Z,3.90
2022-11-20T18:22:43.121Z,4.60
2022-11-20T18:25:10.372Z,4.47
2022-11-20T18:27:38.529Z,5.33
2022-11-20T18:30:05.753Z,4.33
2022-11-20T18:32:32.721Z,5.37
2022-11-20T18:34:59.545Z,4.80
2022-11-20T18:37:26.409Z,3.60
2022-11-20T18:39:53.236Z,4.43
2022-11-20T18:42:38.701Z,4.67
2022-11-20T18:45:06.399Z,3.93
2022-11-20T18:47:37.361Z,4.20
2022-11-20T18:50:05.054Z,3.80
2022-11-20T18:52:34.099Z,4.73
2022-11-20T18:55:04.813Z,4.97
2022-11-20T18:57:31.908Z,5.33
2022-11-20T19:00:03.501Z,5.60
2022-11-20T19:02:37.938Z,3.67
2022-11-20T19:05:08.634Z,4.57
2022-11-20T19:07:35.511Z,4.00
2022-11-20T19:10:04.244Z,3.63
2022-11-20T19:12:31.276Z,3.90
2022-11-20T19:14:58.101Z,3.93
2022-11-20T19:17:25.002Z,4.60
2022-11-20T19:19:52.310Z,3.87
2022-11-20T19:22:19.158Z,3.97
2022-11-20T19:24:46.109Z,4.70
2022-11-20T19:27:12.920Z,3.60
2022-11-20T19:29:39.849Z,3.63
2022-11-20T19:32:06.705Z,4.03
2022-11-20T19:34:33.464Z,3.47
2022-11-20T19:37:01.143Z,3.67
2022-11-20T19:39:28.004Z,4.03
2022-11-20T19:41:54.800Z,5.53
2022-11-20T19:44:21.659Z,4.80
2022-11-20T19:46:48.537Z,4.37
2022-11-20T19:49:15.486Z,4.43
2022-11-20T19:51:47.263Z,3.50
2022-11-20T19:54:14.169Z,3.77
2022-11-20T19:56:41.008Z,4.03
2022-11-20T19:59:07.809Z,3.60
2022-11-20T20:01:35.418Z,4.37
2022-11-20T20:04:03.633Z,3.43
2022-11-20T20:06:30.632Z,4.73
2022-11-20T20:08:58.443Z,6.03
2022-11-20T20:11:26.862Z,4.40
2022-11-20T20:13:53.688Z,4.17
2022-11-20T20:16:21.712Z,4.20
2022-11-20T20:18:48.568Z,3.83
2022-11-20T20:21:16.919Z,4.00
2022-11-20T20:23:44.169Z,4.93
2022-11-20T20:26:11.098Z,4.93
2022-11-20T20:28:38.001Z,4.53
2022-11-20T20:31:08.976Z,3.90
2022-11-20T20:33:37.270Z,3.73
2022-11-20T20:36:08.616Z,4.00
2022-11-20T20:38:35.559Z,3.60
2022-11-20T20:41:02.381Z,4.30
2022-11-20T20:43:29.437Z,3.90
2022-11-20T20:45:56.354Z,3.57
2022-11-20T20:48:24.110Z,3.43
2022-11-20T20:50:55.309Z,2.60
2022-11-20T20:53:22.208Z,3.87
2022-11-20T20:55:58.907Z,3.43
2022-11-20T20:58:25.766Z,3.50
2022-11-20T21:00:52.586Z,4.67
2022-11-20T21:03:19.523Z,2.90
2022-11-20T21:05:46.621Z,2.20
2022-11-20T21:08:22.484Z,3.17
2022-11-20T21:10:49.667Z,2.90
2022-11-20T21:13:16.430Z,3.17
2022-11-20T21:15:43.277Z,3.70
2022-11-20T21:18:10.145Z,3.17
2022-11-20T21:20:58.115Z,3.40
2022-11-20T21:23:24.916Z,2.50
2022-11-20T21:25:51.673Z,2.00
2022-11-20T21:28:18.653Z,3.33
2022-11-20T21:30:45.629Z,3.67
2022-11-20T21:33:12.517Z,4.37
2022-11-20T21:35:39.601Z,2.30
2022-11-20T21:38:06.401Z,2.80
2022-11-20T21:40:33.338Z,3.97
2022-11-20T21:43:00.190Z,3.33
2022-11-20T21:45:26.945Z,2.80
2022-11-20T21:47:55.227Z,3.60
2022-11-20T21:50:22.361Z,3.77
2022-11-20T21:52:49.145Z,3.83
2022-11-20T21:55:16.040Z,2.97
2022-11-20T21:57:42.847Z,2.97
2022-11-20T22:00:10.566Z,2.93
2022-11-20T22:02:39.744Z,3.00
2022-11-20T22:05:07.785Z,3.20
2022-11-20T22:07:35.265Z,3.60
2022-11-20T22:10:02.193Z,2.30
2022-11-20T22:12:28.957Z,1.83
2022-11-20T22:14:56.293Z,2.27
2022-11-20T22:17:43.000Z,2.83
2022-11-20T22:20:10.448Z,2.10
2022-11-20T22:22:37.226Z,1.73
2022-11-20T22:25:04.276Z,2.33
2022-11-20T22:27:31.071Z,2.07
2022-11-20T22:29:57.853Z,3.20
2022-11-20T22:32:24.676Z,2.50
2022-11-20T22:34:51.447Z,2.70
2022-11-20T22:37:18.202Z,2.60
2022-11-20T22:39:45.022Z,2.87
2022-11-20T22:42:11.799Z,3.03
2022-11-20T22:44:38.633Z,2.80
2022-11-20T22:47:11.107Z,3.40
2022-11-20T22:49:38.226Z,2.47
2022-11-20T22:52:05.162Z,2.47
2022-11-20T22:54:31.942Z,2.87
2022-11-20T22:56:58.826Z,3.70
2022-11-20T22:59:25.596Z,3.67
2022-11-20T23:01:52.344Z,3.53
2022-11-20T23:04:19.238Z,3.00
2022-11-20T23:06:46.010Z,2.50
2022-11-20T23:09:12.954Z,2.60
2022-11-20T23:11:39.811Z,2.50
2022-11-20T23:14:10.781Z,3.03
2022-11-20T23:16:37.565Z,2.30
2022-11-20T23:19:08.863Z,3.17
2022-11-20T23:21:36.581Z,2.20
2022-11-20T23:24:03.669Z,2.20
2022-11-20T23:26:31.827Z,2.60
2022-11-20T23:28:59.383Z,2.00
2022-11-20T23:31:27.258Z,2.20
2022-11-20T23:33:54.178Z,2.97
2022-11-20T23:36:21.132Z,2.07
2022-11-20T23:38:47.970Z,2.00
2022-11-20T23:41:14.801Z,2.10
2022-11-20T23:43:41.563Z,2.07
2022-11-20T23:46:11.405Z,2.23
2022-11-20T23:48:40.717Z,2.23
2022-11-20T23:51:07.852Z,2.03
2022-11-20T23:53:34.955Z,2.43
2022-11-20T23:56:02.860Z,3.87
2022-11-20T23:58:36.952Z,1.87
